Terminal Aerodrome Forecast
Issued by NWS

Home | Current Version | Previous Version | Text Only | Print | Product List | Glossary On
Versions: 1 2 3 4 5 6 7 8 9 10 11 12 13 14 15 16 17 18 19 20 21 22 23
000
FTUS43 KSGF 190500
TAFJLN
TAF
KJLN 190520Z 1906/2006 11006KT P6SM FEW050 SCT150 OVC250
     FM190700 14004KT 4SM BR SCT050 SCT100 BKN250
     FM191400 22008KT P6SM VCTS SCT035CB BKN100
     FM191800 26010KT 6SM -TSRA BR SCT020 OVC035CB
     FM192200 30012KT 5SM -TSRA BR OVC025CB
     FM200400 31013KT P6SM OVC050=

USA.gov is the U.S. government's official web portal to all federal, state and local government web resources and services.